Time;durP1;ratioP1;P1;durP2;ratioP2;P2;SDS_P1;SDS_P2;PMS_P1;PMS_P2;Temp;Humidity;BMP_temperature;BMP_pressure;BME280_temperature;BME280_humidity;BME280_pressure;Samples;Min_cycle;Max_cycle;Signal;HPM_P1;HPM_P2
2023/12/01 00:02:11;;;;;;;;;;;;;;;5.94;65.97;99446.56;5072321;28;19919;-77
2023/12/01 00:04:36;;;;;;;;;;;;;;;5.92;65.96;99445.06;5076195;28;19919;-78
2023/12/01 00:07:02;;;;;;;;;;;;;;;5.91;65.77;99451.28;5071758;28;19921;-77
2023/12/01 00:09:27;;;;;;;;;;;;;;;5.89;66.67;99450.56;5072062;28;19924;-77
2023/12/01 00:11:53;;;;;;;;;;;;;;;5.87;65.96;99447.28;5072073;28;19919;-78
2023/12/01 00:14:18;;;;;;;;;;;;;;;5.87;66.59;99457.75;5072099;28;19912;-78
2023/12/01 00:16:43;;;;;;;;;;;;;;;5.87;66.17;99460.38;5070744;28;19913;-77
2023/12/01 00:19:08;;;;;;;;;;;;;;;5.82;66.47;99450.34;5071943;28;19919;-78
2023/12/01 00:21:34;;;;;;;;;;;;;;;5.82;66.13;99465.25;5071883;28;20312;-77
2023/12/01 00:23:59;;;;;;;;;;;;;;;5.82;66.32;99465.25;5071828;28;20416;-77
2023/12/01 00:26:24;;;;;;;;;;;;;;;5.79;65.58;99466.38;5071845;28;20010;-77
2023/12/01 00:28:50;;;;;;;;;;;;;;;5.75;65.82;99471.09;5071777;28;19925;-78
2023/12/01 00:31:15;;;;;;;;;;;;;;;5.72;66.21;99479.25;5071928;28;19912;-78
2023/12/01 00:33:40;;;;;;;;;;;;;;;5.66;65.72;99469.34;5071764;28;19920;-77
2023/12/01 00:36:06;;;;;;;;;;;;;;;5.57;65.79;99464.19;5071678;28;19912;-77
2023/12/01 00:38:31;;;;;;;;;;;;;;;5.56;66.38;99465.16;5070460;28;19913;-77
2023/12/01 00:40:57;;;;;;;;;;;;;;;5.57;65.85;99477.28;5070541;28;19912;-78
2023/12/01 00:43:22;;;;;;;;;;;;;;;5.58;66.23;99474.50;5071761;28;19935;-78
2023/12/01 00:45:47;;;;;;;;;;;;;;;5.61;65.76;99479.47;5071927;28;20358;-78
2023/12/01 00:48:13;;;;;;;;;;;;;;;5.61;65.79;99476.00;5072416;28;19946;-77
2023/12/01 00:50:39;;;;;;;;;;;;;;;5.56;65.72;99471.22;5075827;28;19919;-78
2023/12/01 00:53:04;;;;;;;;;;;;;;;5.56;65.65;99471.22;5075871;28;19950;-77
2023/12/01 00:55:30;;;;;;;;;;;;;;;5.55;66.07;99480.03;5074425;28;20340;-77
2023/12/01 00:57:55;;;;;;;;;;;;;;;5.51;65.99;99475.25;5075612;28;19912;-78
2023/12/01 01:00:22;;;;;;;;;;;;;;;5.50;65.97;99460.50;5075490;28;19919;-77
2023/12/01 01:02:47;;;;;;;;;;;;;;;5.42;66.19;99459.44;5075552;28;19919;-78
2023/12/01 01:05:13;;;;;;;;;;;;;;;5.40;65.83;99456.16;5075378;28;20694;-77
2023/12/01 01:07:38;;;;;;;;;;;;;;;5.40;66.03;99455.34;5075644;28;19966;-77
2023/12/01 01:10:03;;;;;;;;;;;;;;;5.39;66.09;99453.69;5074346;28;19917;-77
2023/12/01 01:12:29;;;;;;;;;;;;;;;5.42;65.74;99456.00;5075525;28;19916;-78
2023/12/01 01:14:54;;;;;;;;;;;;;;;5.42;66.25;99456.84;5075435;28;20399;-77
2023/12/01 01:17:20;;;;;;;;;;;;;;;5.42;66.31;99456.00;5075457;28;19913;-78
2023/12/01 01:19:45;;;;;;;;;;;;;;;5.42;66.14;99453.38;5075402;28;19913;-77
2023/12/01 01:22:11;;;;;;;;;;;;;;;5.39;65.89;99459.75;5075319;28;19912;-78
2023/12/01 01:24:36;;;;;;;;;;;;;;;5.39;65.94;99458.91;5075103;28;20408;-79
2023/12/01 01:27:01;;;;;;;;;;;;;;;5.41;66.03;99452.56;5073704;28;19913;-78
2023/12/01 01:29:27;;;;;;;;;;;;;;;5.43;66.02;99436.72;5075101;28;19920;-78
2023/12/01 01:31:52;;;;;;;;;;;;;;;5.47;66.09;99426.78;5074897;28;19912;-78
2023/12/01 01:34:17;;;;;;;;;;;;;;;5.43;65.53;99439.34;5074800;28;19912;-78
2023/12/01 01:36:44;;;;;;;;;;;;;;;5.41;65.66;99441.28;5074682;28;19916;-77
2023/12/01 01:39:10;;;;;;;;;;;;;;;5.40;65.64;99457.94;5074970;28;19913;-77
2023/12/01 01:41:35;;;;;;;;;;;;;;;5.35;65.84;99453.16;5075058;28;20336;-77
2023/12/01 01:44:00;;;;;;;;;;;;;;;5.30;65.92;99450.16;5075097;28;19917;-78
2023/12/01 01:46:26;;;;;;;;;;;;;;;5.21;65.68;99448.41;5075167;28;19912;-77
2023/12/01 01:48:51;;;;;;;;;;;;;;;5.23;66.24;99445.66;5094935;28;19916;-77
2023/12/01 01:51:17;;;;;;;;;;;;;;;5.15;65.89;99437.69;5083002;28;19960;-78
2023/12/01 01:53:42;;;;;;;;;;;;;;;5.17;66.19;99428.72;5074762;28;20454;-77
2023/12/01 01:56:08;;;;;;;;;;;;;;;5.18;66.44;99430.34;5074548;28;19909;-78
2023/12/01 01:58:34;;;;;;;;;;;;;;;5.18;65.91;99426.91;5074771;28;20421;-77
2023/12/01 02:00:59;;;;;;;;;;;;;;;5.23;66.08;99432.56;5074563;28;20007;-79
2023/12/01 02:03:24;;;;;;;;;;;;;;;5.24;66.13;99428.97;5073191;28;19948;-77
2023/12/01 02:05:50;;;;;;;;;;;;;;;5.26;65.99;99417.38;5074502;28;19920;-77
2023/12/01 02:08:21;;;;;;;;;;;;;;;5.26;65.72;99422.63;5074446;28;19981;-78
2023/12/01 02:10:47;;;;;;;;;;;;;;;5.28;65.76;99428.53;5074456;28;19919;-77
2023/12/01 02:13:14;;;;;;;;;;;;;;;5.32;65.80;99432.50;5073221;28;20391;-77
2023/12/01 02:15:40;;;;;;;;;;;;;;;5.28;65.95;99418.06;5074483;28;19912;-78
2023/12/01 02:18:17;;;;;;;;;;;;;;;5.30;65.69;99415.31;5074495;28;19912;-78
2023/12/01 02:20:42;;;;;;;;;;;;;;;5.32;65.67;99415.97;5073144;28;19923;-77
2023/12/01 02:23:08;;;;;;;;;;;;;;;5.27;65.43;99419.03;5074457;28;19978;-78
2023/12/01 02:25:33;;;;;;;;;;;;;;;5.26;65.69;99427.03;5073003;28;20455;-78
2023/12/01 02:28:00;;;;;;;;;;;;;;;5.22;66.02;99431.75;5074445;28;19963;-78
2023/12/01 02:30:25;;;;;;;;;;;;;;;5.23;66.06;99422.91;5074638;28;19917;-78
2023/12/01 02:32:51;;;;;;;;;;;;;;;5.25;66.01;99426.22;5074615;28;19913;-78
2023/12/01 02:35:16;;;;;;;;;;;;;;;5.22;65.93;99417.84;5074769;28;19912;-78
2023/12/01 02:37:41;;;;;;;;;;;;;;;5.25;65.82;99425.41;5074278;28;19913;-76
2023/12/01 02:40:14;;;;;;;;;;;;;;;5.24;66.01;99416.72;5074575;28;19913;-77
2023/12/01 02:42:44;;;;;;;;;;;;;;;5.24;65.86;99408.03;5074392;28;19989;-78
2023/12/01 02:45:09;;;;;;;;;;;;;;;5.26;66.10;99408.72;5074151;28;19912;-78
2023/12/01 02:47:34;;;;;;;;;;;;;;;5.27;66.08;99397.28;5074845;28;20337;-77
2023/12/01 02:50:00;;;;;;;;;;;;;;;5.25;65.99;99397.41;5073795;28;20393;-78
2023/12/01 02:52:25;;;;;;;;;;;;;;;5.25;66.01;99394.81;5073777;28;19912;-76
2023/12/01 02:54:50;;;;;;;;;;;;;;;5.23;66.17;99391.50;5072555;28;19917;-78
2023/12/01 02:57:16;;;;;;;;;;;;;;;5.26;66.01;99393.00;5073753;28;19916;-78
2023/12/01 02:59:41;;;;;;;;;;;;;;;5.23;65.61;99391.50;5073433;28;20385;-78
2023/12/01 03:02:06;;;;;;;;;;;;;;;5.20;66.05;99390.94;5073392;28;19935;-77
2023/12/01 03:04:32;;;;;;;;;;;;;;;5.17;65.81;99381.59;5073375;28;19919;-78
2023/12/01 03:06:57;;;;;;;;;;;;;;;5.18;66.04;99375.41;5073221;28;19921;-78
2023/12/01 03:09:22;;;;;;;;;;;;;;;5.19;66.12;99378.84;5071713;28;19924;-76
2023/12/01 03:11:49;;;;;;;;;;;;;;;5.18;66.98;99371.97;5072352;28;19935;-79
2023/12/01 03:14:14;;;;;;;;;;;;;;;5.23;67.09;99367.13;5073378;28;19940;-78
2023/12/01 03:16:40;;;;;;;;;;;;;;;5.26;66.86;99372.06;5073469;28;19947;-78
2023/12/01 03:19:08;;;;;;;;;;;;;;;5.25;67.20;99371.25;5073374;28;20317;-78
2023/12/01 03:21:34;;;;;;;;;;;;;;;5.28;66.88;99370.13;5072029;28;20051;-77
2023/12/01 03:24:00;;;;;;;;;;;;;;;5.34;66.98;99388.69;5073340;28;19950;-78
2023/12/01 03:26:26;;;;;;;;;;;;;;;5.35;66.31;99385.09;5073141;28;20346;-78
2023/12/01 03:28:51;;;;;;;;;;;;;;;5.36;66.78;99375.44;5072831;28;20008;-78
2023/12/01 03:31:16;;;;;;;;;;;;;;;5.38;66.55;99374.31;5073017;28;19912;-78
2023/12/01 03:33:42;;;;;;;;;;;;;;;5.42;66.56;99383.53;5072792;28;20003;-76
2023/12/01 03:36:07;;;;;;;;;;;;;;;5.40;66.84;99364.53;5071236;28;19912;-78
2023/12/01 03:38:32;;;;;;;;;;;;;;;5.38;66.49;99361.22;5072537;28;20333;-76
2023/12/01 03:41:00;;;;;;;;;;;;;;;5.33;66.83;99366.09;5072651;28;19912;-78
2023/12/01 03:43:25;;;;;;;;;;;;;;;5.30;66.86;99366.38;5072652;28;19928;-76
2023/12/01 03:45:51;;;;;;;;;;;;;;;5.31;66.63;99361.97;5072443;28;19952;-77
2023/12/01 03:48:17;;;;;;;;;;;;;;;5.33;66.80;99367.88;5072425;28;19952;-78
2023/12/01 03:50:42;;;;;;;;;;;;;;;5.31;66.93;99382.91;5072455;28;19912;-77
2023/12/01 03:53:08;;;;;;;;;;;;;;;5.31;66.58;99375.06;5072436;28;19912;-78
2023/12/01 03:55:33;;;;;;;;;;;;;;;5.36;66.43;99372.81;5071240;28;19999;-78
2023/12/01 03:57:58;;;;;;;;;;;;;;;5.37;66.26;99366.63;5072612;28;20007;-77
2023/12/01 04:00:32;;;;;;;;;;;;;;;5.38;66.34;99368.25;5072107;28;20010;-77
2023/12/01 04:02:57;;;;;;;;;;;;;;;5.31;66.62;99362.81;5072230;28;19912;-78
2023/12/01 04:05:25;;;;;;;;;;;;;;;5.27;66.75;99376.34;5072108;28;20359;-78
2023/12/01 04:07:53;;;;;;;;;;;;;;;5.28;66.77;99367.50;5072073;28;19950;-78
2023/12/01 04:10:19;;;;;;;;;;;;;;;5.33;66.69;99355.63;5072109;28;19916;-79
2023/12/01 04:12:44;;;;;;;;;;;;;;;5.36;66.42;99370.22;5072181;28;20394;-77
2023/12/01 04:15:28;;;;;;;;;;;;;;;5.36;66.47;99371.03;5072305;28;20090;-78
2023/12/01 04:17:54;;;;;;;;;;;;;;;5.37;66.62;99374.47;5071991;28;19912;-78
2023/12/01 04:20:24;;;;;;;;;;;;;;;5.40;66.25;99377.63;5072062;28;19919;-79
2023/12/01 04:22:59;;;;;;;;;;;;;;;5.39;66.33;99377.75;5071484;28;19912;-78
2023/12/01 04:25:25;;;;;;;;;;;;;;;5.36;65.57;99364.97;5072479;28;20289;-75
2023/12/01 04:27:51;;;;;;;;;;;;;;;5.33;66.19;99371.31;5072152;28;20003;-78
2023/12/01 04:30:17;;;;;;;;;;;;;;;5.32;65.53;99382.78;5070793;28;19920;-78
2023/12/01 04:32:47;;;;;;;;;;;;;;;5.34;65.87;99370.34;5072227;28;19917;-78
2023/12/01 04:35:12;;;;;;;;;;;;;;;5.31;65.57;99367.22;5072078;28;19917;-77
2023/12/01 04:37:39;;;;;;;;;;;;;;;5.30;65.92;99363.78;5072008;28;19962;-79
2023/12/01 04:40:13;;;;;;;;;;;;;;;5.29;66.03;99361.31;5072094;28;20352;-77
2023/12/01 04:42:38;;;;;;;;;;;;;;;5.29;65.75;99369.16;5072079;28;19912;-78
2023/12/01 04:45:06;;;;;;;;;;;;;;;5.31;65.78;99378.50;5071715;28;19969;-78
2023/12/01 04:47:31;;;;;;;;;;;;;;;5.32;65.40;99377.53;5071496;28;19962;-78
2023/12/01 04:49:57;;;;;;;;;;;;;;;5.31;65.74;99378.50;5071519;28;20397;-78
2023/12/01 04:52:23;;;;;;;;;;;;;;;5.33;65.74;99384.41;5071693;28;19916;-77
2023/12/01 04:54:48;;;;;;;;;;;;;;;5.32;65.80;99376.72;5071671;28;19920;-78
2023/12/01 04:57:13;;;;;;;;;;;;;;;5.30;65.79;99387.34;5071816;28;19923;-78
2023/12/01 04:59:39;;;;;;;;;;;;;;;5.32;65.64;99389.81;5072001;28;20068;-78
2023/12/01 05:02:04;;;;;;;;;;;;;;;5.29;65.26;99380.44;5070935;28;20439;-77
2023/12/01 05:04:29;;;;;;;;;;;;;;;5.26;65.63;99379.94;5072648;28;19912;-77
2023/12/01 05:06:54;;;;;;;;;;;;;;;5.24;65.46;99387.91;5072800;28;19928;-77
2023/12/01 05:09:22;;;;;;;;;;;;;;;5.26;65.64;99369.44;5072180;28;19916;-78
2023/12/01 05:11:48;;;;;;;;;;;;;;;5.22;65.74;99365.50;5072197;28;19916;-78
2023/12/01 05:14:13;;;;;;;;;;;;;;;5.21;65.78;99376.94;5071392;28;19912;-77
2023/12/01 05:16:39;;;;;;;;;;;;;;;5.24;65.74;99387.09;5071376;28;19912;-79
2023/12/01 05:19:05;;;;;;;;;;;;;;;5.26;65.62;99374.69;5071249;28;20416;-76
2023/12/01 05:21:31;;;;;;;;;;;;;;;5.21;65.54;99361.22;5071199;28;19919;-77
2023/12/01 05:23:58;;;;;;;;;;;;;;;5.21;65.53;99359.44;5071447;28;19912;-77
2023/12/01 05:26:23;;;;;;;;;;;;;;;5.21;65.52;99372.50;5071348;28;19920;-76
2023/12/01 05:28:49;;;;;;;;;;;;;;;5.25;65.85;99378.28;5069941;28;19916;-79
2023/12/01 05:31:14;;;;;;;;;;;;;;;5.26;65.51;99369.44;5070084;28;20395;-78
2023/12/01 05:33:41;;;;;;;;;;;;;;;5.21;65.67;99372.50;5071307;28;19913;-77
2023/12/01 05:36:14;;;;;;;;;;;;;;;5.22;65.98;99379.41;5075105;28;19962;-78
2023/12/01 05:38:39;;;;;;;;;;;;;;;5.24;65.89;99372.22;5075159;28;19913;-78
2023/12/01 05:41:09;;;;;;;;;;;;;;;5.27;65.46;99363.25;5075170;28;19917;-78
2023/12/01 05:43:34;;;;;;;;;;;;;;;5.30;65.67;99376.84;5075160;28;19917;-77
2023/12/01 05:45:59;;;;;;;;;;;;;;;5.34;65.80;99377.38;5075281;28;19917;-78
2023/12/01 05:48:25;;;;;;;;;;;;;;;5.35;65.53;99372.00;5074824;28;19912;-79
2023/12/01 05:50:51;;;;;;;;;;;;;;;5.31;65.33;99373.28;5074851;28;20330;-78
2023/12/01 05:53:17;;;;;;;;;;;;;;;5.31;65.76;99375.06;5074653;28;19959;-77
2023/12/01 05:55:42;;;;;;;;;;;;;;;5.31;65.44;99365.41;5074438;28;20484;-77
2023/12/01 05:58:12;;;;;;;;;;;;;;;5.32;65.50;99371.47;5074695;28;20413;-77
2023/12/01 06:00:38;;;;;;;;;;;;;;;5.29;65.30;99371.78;5074924;28;20400;-77
2023/12/01 06:03:06;;;;;;;;;;;;;;;5.32;65.83;99363.63;5074556;28;19938;-77
2023/12/01 06:05:31;;;;;;;;;;;;;;;5.34;65.44;99357.25;5074450;28;19921;-77
2023/12/01 06:07:59;;;;;;;;;;;;;;;5.35;65.48;99358.91;5074697;28;19919;-78
2023/12/01 06:10:26;;;;;;;;;;;;;;;5.38;65.33;99361.22;5074633;28;19923;-77
2023/12/01 06:12:52;;;;;;;;;;;;;;;5.39;65.55;99351.59;5074553;28;19991;-77
2023/12/01 06:15:18;;;;;;;;;;;;;;;5.40;65.56;99354.06;5074439;28;20370;-78
2023/12/01 06:17:44;;;;;;;;;;;;;;;5.45;65.32;99350.97;5074291;28;19913;-77
2023/12/01 06:20:19;;;;;;;;;;;;;;;5.47;65.36;99343.81;5074228;28;19935;-77
2023/12/01 06:22:48;;;;;;;;;;;;;;;5.50;65.13;99343.50;5074475;28;20023;-77
2023/12/01 06:25:17;;;;;;;;;;;;;;;5.54;65.27;99346.63;5074127;28;19966;-77
2023/12/01 06:27:43;;;;;;;;;;;;;;;5.59;65.70;99366.16;5080968;28;19971;-77
2023/12/01 06:30:12;;;;;;;;;;;;;;;5.58;65.68;99359.28;5082515;28;19956;-78
2023/12/01 06:32:46;;;;;;;;;;;;;;;5.58;64.91;99345.38;5073688;28;19913;-78
2023/12/01 06:35:16;;;;;;;;;;;;;;;5.57;64.92;99352.41;5074935;28;20460;-77
2023/12/01 06:37:42;;;;;;;;;;;;;;;5.54;64.90;99362.34;5074016;28;19916;-77
2023/12/01 06:40:15;;;;;;;;;;;;;;;5.53;65.07;99364.16;5074140;28;19999;-77
2023/12/01 06:42:45;;;;;;;;;;;;;;;5.50;65.10;99351.34;5074127;28;20396;-77
2023/12/01 06:45:11;;;;;;;;;;;;;;;5.50;65.03;99382.78;5074970;28;19917;-77
2023/12/01 06:47:37;;;;;;;;;;;;;;;5.52;64.53;99359.88;5087104;28;19916;-77
2023/12/01 06:50:03;;;;;;;;;;;;;;;5.56;64.90;99360.41;5077645;28;19977;-77
2023/12/01 06:52:28;;;;;;;;;;;;;;;5.62;64.89;99373.72;5075499;28;20340;-77
2023/12/01 06:54:53;;;;;;;;;;;;;;;5.70;64.88;99359.88;5073859;28;19912;-76
2023/12/01 06:57:19;;;;;;;;;;;;;;;5.75;65.33;99357.63;5070765;28;19928;-77
2023/12/01 06:59:44;;;;;;;;;;;;;;;5.77;64.56;99344.38;5084490;28;19974;-76
2023/12/01 07:02:09;;;;;;;;;;;;;;;5.83;65.05;99343.75;5081124;28;20375;-78
2023/12/01 07:04:35;;;;;;;;;;;;;;;5.91;65.13;99343.84;5073642;28;20385;-78
2023/12/01 07:07:00;;;;;;;;;;;;;;;5.97;65.00;99338.84;5070817;28;20309;-76
2023/12/01 07:09:29;;;;;;;;;;;;;;;6.02;65.50;99346.25;5088816;28;19986;-78
2023/12/01 07:11:55;;;;;;;;;;;;;;;6.10;64.91;99348.09;5093328;28;19995;-77
2023/12/01 07:14:23;;;;;;;;;;;;;;;6.16;64.69;99345.69;5088429;28;19963;-77
2023/12/01 07:16:49;;;;;;;;;;;;;;;6.20;64.80;99341.78;5075433;28;19912;-78
2023/12/01 07:19:14;;;;;;;;;;;;;;;6.28;64.60;99352.31;5073094;28;19920;-77
2023/12/01 07:21:39;;;;;;;;;;;;;;;6.35;65.13;99358.56;5073059;28;20403;-77
2023/12/01 07:24:07;;;;;;;;;;;;;;;6.41;64.67;99351.88;5070395;28;20402;-77
2023/12/01 07:26:33;;;;;;;;;;;;;;;6.43;63.99;99347.31;5062407;28;19915;-77
2023/12/01 07:29:00;;;;;;;;;;;;;;;6.44;64.25;99345.50;5052233;28;19928;-77
2023/12/01 07:31:26;;;;;;;;;;;;;;;6.47;64.94;99339.94;5058657;28;19926;-77
2023/12/01 07:33:51;;;;;;;;;;;;;;;6.52;64.66;99343.75;5066952;28;19924;-76
2023/12/01 07:36:16;;;;;;;;;;;;;;;6.60;64.14;99356.06;5070025;28;19967;-77
2023/12/01 07:38:42;;;;;;;;;;;;;;;6.67;64.59;99354.47;5072357;28;20361;-77
2023/12/01 07:41:07;;;;;;;;;;;;;;;6.72;64.63;99352.22;5078117;28;19913;-78
2023/12/01 07:43:33;;;;;;;;;;;;;;;6.79;64.32;99349.78;5080329;28;19996;-77
2023/12/01 07:45:58;;;;;;;;;;;;;;;6.84;64.55;99348.31;5067703;28;19940;-78
2023/12/01 07:48:23;;;;;;;;;;;;;;;6.90;64.12;99354.75;5052700;28;20392;-77
2023/12/01 07:50:49;;;;;;;;;;;;;;;6.88;64.98;99364.56;5052654;28;19940;-76
2023/12/01 07:53:14;;;;;;;;;;;;;;;6.94;64.92;99363.94;5052350;28;20384;-77
2023/12/01 07:55:43;;;;;;;;;;;;;;;6.96;64.15;99378.56;5060641;28;20385;-77
2023/12/01 07:58:09;;;;;;;;;;;;;;;6.95;64.53;99387.41;5053598;28;20361;-78
2023/12/01 08:00:34;;;;;;;;;;;;;;;6.95;65.54;99386.59;5064753;28;20518;-78
2023/12/01 08:03:00;;;;;;;;;;;;;;;7.00;65.59;99389.56;5070253;28;19999;-77
2023/12/01 08:05:26;;;;;;;;;;;;;;;7.02;64.94;99384.97;5051072;28;19924;-77
2023/12/01 08:07:52;;;;;;;;;;;;;;;7.00;65.40;99377.25;5070603;28;19935;-77
2023/12/01 08:10:18;;;;;;;;;;;;;;;6.96;65.28;99381.19;5072072;28;19916;-77
2023/12/01 08:12:44;;;;;;;;;;;;;;;6.99;66.40;99372.97;5061901;28;19917;-77
2023/12/01 08:15:10;;;;;;;;;;;;;;;7.08;66.19;99373.00;5060521;28;19939;-78
2023/12/01 08:17:36;;;;;;;;;;;;;;;7.16;65.58;99381.72;5072087;28;19916;-77
2023/12/01 08:20:03;;;;;;;;;;;;;;;7.25;65.74;99387.81;5068281;28;19931;-76
2023/12/01 08:22:29;;;;;;;;;;;;;;;7.31;65.66;99381.94;5052162;28;19913;-77
2023/12/01 08:24:54;;;;;;;;;;;;;;;7.40;65.89;99375.69;5049932;28;19917;-78
2023/12/01 08:27:19;;;;;;;;;;;;;;;7.49;65.69;99377.38;5058925;28;19916;-77
2023/12/01 08:29:45;;;;;;;;;;;;;;;7.59;65.31;99382.50;5063530;28;19921;-77
2023/12/01 08:32:10;;;;;;;;;;;;;;;7.69;65.62;99379.69;5070126;28;19913;-78
2023/12/01 08:34:36;;;;;;;;;;;;;;;7.75;65.70;99393.00;5071379;28;20003;-77
2023/12/01 08:37:02;;;;;;;;;;;;;;;7.82;66.01;99377.41;5068037;28;20003;-77
2023/12/01 08:39:28;;;;;;;;;;;;;;;7.89;65.44;99373.13;5065220;28;20371;-77
2023/12/01 08:41:53;;;;;;;;;;;;;;;7.96;65.58;99371.50;5068215;28;19916;-77
2023/12/01 08:44:19;;;;;;;;;;;;;;;8.02;65.10;99368.19;5053387;28;20003;-78
2023/12/01 08:46:44;;;;;;;;;;;;;;;8.11;64.96;99374.25;5054316;28;19920;-77
2023/12/01 08:49:10;;;;;;;;;;;;;;;8.19;65.05;99385.63;5052464;28;20063;-77
2023/12/01 08:51:35;;;;;;;;;;;;;;;8.15;65.06;99378.19;5064100;28;20007;-77
2023/12/01 08:54:00;;;;;;;;;;;;;;;8.20;64.96;99387.25;5051502;28;19995;-78
2023/12/01 08:56:30;;;;;;;;;;;;;;;8.28;64.65;99384.63;5051359;28;19919;-78
2023/12/01 08:58:55;;;;;;;;;;;;;;;8.33;65.04;99373.63;5053776;28;19974;-77
2023/12/01 09:01:21;;;;;;;;;;;;;;;8.37;64.94;99369.69;5051037;28;20363;-77
2023/12/01 09:03:46;;;;;;;;;;;;;;;8.44;64.94;99367.19;5049865;28;19916;-76
2023/12/01 09:06:11;;;;;;;;;;;;;;;8.48;65.74;99371.94;5062794;28;19921;-78
2023/12/01 09:08:37;;;;;;;;;;;;;;;8.48;65.19;99356.16;5068563;28;19925;-77
2023/12/01 09:11:02;;;;;;;;;;;;;;;8.56;65.18;99363.22;5074921;28;19965;-77
2023/12/01 09:13:28;;;;;;;;;;;;;;;8.58;65.33;99359.41;5058756;28;20415;-77
2023/12/01 09:15:53;;;;;;;;;;;;;;;8.63;64.99;99353.66;5055400;28;19945;-78
2023/12/01 09:18:18;;;;;;;;;;;;;;;8.66;65.06;99347.22;5063939;28;19916;-76
2023/12/01 09:20:44;;;;;;;;;;;;;;;8.69;64.72;99342.44;5073822;28;19916;-76
2023/12/01 09:23:09;;;;;;;;;;;;;;;8.73;64.66;99338.47;5064741;28;19946;-76
2023/12/01 09:25:34;;;;;;;;;;;;;;;8.77;64.70;99323.16;5054963;28;19970;-77
2023/12/01 09:28:00;;;;;;;;;;;;;;;8.80;64.66;99318.38;5062315;28;20298;-78
2023/12/01 09:30:25;;;;;;;;;;;;;;;8.82;65.07;99316.38;5065057;28;19921;-78
2023/12/01 09:32:51;;;;;;;;;;;;;;;8.84;64.45;99313.56;5063468;28;19916;-78
2023/12/01 09:35:19;;;;;;;;;;;;;;;8.87;64.77;99303.53;5074835;28;19919;-77
2023/12/01 09:37:44;;;;;;;;;;;;;;;8.95;64.27;99280.81;5074925;28;19916;-78
2023/12/01 09:40:10;;;;;;;;;;;;;;;9.03;64.57;99284.19;5061196;28;19924;-75
2023/12/01 09:42:37;;;;;;;;;;;;;;;9.11;64.64;99278.06;5054591;28;19920;-75
2023/12/01 09:45:03;;;;;;;;;;;;;;;9.13;65.28;99291.88;5054517;28;19943;-75
2023/12/01 09:47:32;;;;;;;;;;;;;;;9.22;64.87;99285.56;5055231;28;19979;-75
2023/12/01 09:49:57;;;;;;;;;;;;;;;9.37;65.05;99272.44;5074340;28;20030;-76
2023/12/01 09:52:23;;;;;;;;;;;;;;;9.45;64.30;99265.28;5067253;28;20476;-79
2023/12/01 09:54:48;;;;;;;;;;;;;;;9.47;64.21;99250.13;5072871;28;20394;-78
2023/12/01 09:57:16;;;;;;;;;;;;;;;9.51;64.01;99263.75;5070136;28;19956;-77
2023/12/01 09:59:42;;;;;;;;;;;;;;;9.52;64.00;99266.22;5057536;28;19951;-79
2023/12/01 10:02:08;;;;;;;;;;;;;;;9.49;63.60;99256.03;5074646;28;20003;-77
2023/12/01 10:04:34;;;;;;;;;;;;;;;9.49;64.00;99266.56;5074668;28;19948;-77
2023/12/01 10:07:01;;;;;;;;;;;;;;;9.56;63.99;99262.22;5064233;28;20011;-75
2023/12/01 10:09:27;;;;;;;;;;;;;;;9.65;63.83;99270.88;5074928;28;19920;-76
2023/12/01 10:12:08;;;;;;;;;;;;;;;9.71;63.85;99275.47;5055456;28;19942;-76
2023/12/01 10:14:37;;;;;;;;;;;;;;;9.78;63.50;99275.56;5071151;28;20385;-75
2023/12/01 10:17:03;;;;;;;;;;;;;;;9.82;63.57;99271.56;5064556;28;19916;-75
2023/12/01 10:19:33;;;;;;;;;;;;;;;9.82;63.18;99261.03;5072819;28;19927;-78
2023/12/01 10:21:59;;;;;;;;;;;;;;;9.72;63.55;99256.00;5072911;28;19923;-77
2023/12/01 10:24:24;;;;;;;;;;;;;;;9.78;63.84;99254.47;5070807;28;19979;-76
2023/12/01 10:26:50;;;;;;;;;;;;;;;9.85;63.34;99236.94;5072678;28;19917;-76
2023/12/01 10:29:34;;;;;;;;;;;;;;;9.94;62.60;99237.66;5073952;28;19916;-76
2023/12/01 10:32:00;;;;;;;;;;;;;;;9.91;62.89;99236.22;5073898;28;19912;-77
2023/12/01 10:34:25;;;;;;;;;;;;;;;9.94;63.88;99240.31;5059662;28;20011;-78
2023/12/01 10:36:54;;;;;;;;;;;;;;;9.95;63.59;99223.47;5073408;28;19971;-77
2023/12/01 10:39:27;;;;;;;;;;;;;;;9.99;63.51;99222.94;5067499;28;19917;-77
2023/12/01 10:41:53;;;;;;;;;;;;;;;10.03;63.45;99218.94;5056828;28;19917;-77
2023/12/01 10:44:21;;;;;;;;;;;;;;;10.06;63.31;99218.56;5053648;28;19912;-76
2023/12/01 10:46:47;;;;;;;;;;;;;;;10.09;63.31;99236.66;5052238;28;20310;-76
2023/12/01 10:49:14;;;;;;;;;;;;;;;10.16;62.51;99240.22;5053471;28;19986;-76
2023/12/01 10:51:40;;;;;;;;;;;;;;;10.22;62.81;99237.88;5053406;28;19956;-76
2023/12/01 10:54:08;;;;;;;;;;;;;;;10.19;63.36;99239.03;5053406;28;19913;-76
2023/12/01 10:56:37;;;;;;;;;;;;;;;10.25;63.15;99232.22;5052766;28;19970;-78
2023/12/01 10:59:04;;;;;;;;;;;;;;;10.30;63.59;99222.75;5066395;28;19916;-78
2023/12/01 11:01:30;;;;;;;;;;;;;;;10.38;62.77;99221.84;5072730;28;19916;-78
2023/12/01 11:03:57;;;;;;;;;;;;;;;10.41;63.56;99224.97;5071271;28;19930;-77
2023/12/01 11:06:29;;;;;;;;;;;;;;;10.49;62.93;99216.94;5064946;28;20074;-77
2023/12/01 11:09:01;;;;;;;;;;;;;;;10.57;63.33;99215.19;5052690;28;20023;-78
2023/12/01 11:11:26;;;;;;;;;;;;;;;10.57;62.43;99216.00;5072221;28;19942;-77
2023/12/01 11:13:54;;;;;;;;;;;;;;;10.62;63.35;99215.44;5063806;28;19939;-77
2023/12/01 11:16:20;;;;;;;;;;;;;;;10.64;63.01;99216.91;5052818;28;19947;-77
2023/12/01 11:18:45;;;;;;;;;;;;;;;10.64;63.34;99218.72;5052957;28;20361;-77
2023/12/01 11:21:10;;;;;;;;;;;;;;;10.62;62.95;99224.19;5051610;28;19912;-77
2023/12/01 11:23:36;;;;;;;;;;;;;;;10.63;63.17;99223.19;5059655;28;20406;-77
2023/12/01 11:26:08;;;;;;;;;;;;;;;10.63;62.83;99209.97;5072505;28;19920;-77
2023/12/01 11:33:50;;;;;;;;;;;;;;;10.63;62.95;99209.97;5072718;28;19912;-77
2023/12/01 11:36:34;;;;;;;;;;;;;;;10.64;62.53;99205.50;5067734;28;19917;-77
2023/12/01 11:39:08;;;;;;;;;;;;;;;10.62;62.54;99210.97;5066334;28;19916;-77
2023/12/01 11:41:33;;;;;;;;;;;;;;;10.64;62.81;99216.91;5071929;28;20463;-78
2023/12/01 11:44:07;;;;;;;;;;;;;;;10.62;62.60;99215.44;5072520;28;19930;-77
2023/12/01 11:46:34;;;;;;;;;;;;;;;10.60;63.02;99228.81;5072564;28;19944;-78
2023/12/01 11:49:00;;;;;;;;;;;;;;;10.59;62.91;99215.81;5070651;28;20011;-77
2023/12/01 11:51:26;;;;;;;;;;;;;;;10.53;62.83;99216.56;5072264;28;19951;-77
2023/12/01 11:53:58;;;;;;;;;;;;;;;10.49;62.92;99201.09;5070981;28;19948;-78
2023/12/01 11:56:25;;;;;;;;;;;;;;;10.49;63.11;99200.28;5072004;28;19960;-77
2023/12/01 11:58:51;;;;;;;;;;;;;;;10.50;63.29;99213.28;5071907;28;19920;-77
2023/12/01 12:01:16;;;;;;;;;;;;;;;10.46;62.50;99205.94;5056902;28;19916;-77
2023/12/01 12:03:42;;;;;;;;;;;;;;;10.43;63.34;99196.56;5056306;28;19920;-77
2023/12/01 12:06:08;;;;;;;;;;;;;;;10.42;63.13;99186.19;5050479;28;19920;-77
2023/12/01 12:08:33;;;;;;;;;;;;;;;10.40;63.31;99182.88;5054951;28;19924;-77
2023/12/01 12:11:01;;;;;;;;;;;;;;;10.41;63.55;99179.28;5068770;28;20225;-77
2023/12/01 12:13:26;;;;;;;;;;;;;;;10.42;63.79;99179.09;5069197;28;20011;-78
2023/12/01 12:15:52;;;;;;;;;;;;;;;10.44;63.06;99176.25;5063842;28;20385;-78
2023/12/01 12:18:19;;;;;;;;;;;;;;;10.46;63.46;99182.16;5061156;28;19917;-77
2023/12/01 12:20:46;;;;;;;;;;;;;;;10.47;62.94;99182.00;5060537;28;20454;-77
2023/12/01 12:23:12;;;;;;;;;;;;;;;10.50;63.29;99191.34;5065718;28;19921;-77
2023/12/01 12:25:37;;;;;;;;;;;;;;;10.53;63.09;99193.63;5051796;28;19913;-77
2023/12/01 12:28:09;;;;;;;;;;;;;;;10.56;62.92;99193.25;5051595;28;19979;-78
2023/12/01 12:30:35;;;;;;;;;;;;;;;10.58;63.22;99199.16;5049978;28;20377;-77
2023/12/01 12:33:01;;;;;;;;;;;;;;;10.60;63.23;99199.78;5053723;28;19958;-77
2023/12/01 12:35:26;;;;;;;;;;;;;;;10.61;63.56;99195.34;5071827;28;19956;-77
2023/12/01 12:37:51;;;;;;;;;;;;;;;10.63;63.62;99180.94;5058307;28;19917;-77
2023/12/01 12:40:17;;;;;;;;;;;;;;;10.64;63.97;99182.56;5053851;28;19999;-77
2023/12/01 12:42:55;;;;;;;;;;;;;;;10.66;63.46;99175.28;5070367;28;19924;-77
2023/12/01 12:45:20;;;;;;;;;;;;;;;10.66;63.91;99170.00;5068794;28;19916;-77
2023/12/01 12:47:46;;;;;;;;;;;;;;;10.66;63.15;99162.09;5071445;28;19913;-77
2023/12/01 12:50:11;;;;;;;;;;;;;;;10.65;63.36;99171.00;5069938;28;20404;-77
2023/12/01 12:52:36;;;;;;;;;;;;;;;10.65;63.39;99172.84;5065779;28;19921;-77
2023/12/01 12:55:02;;;;;;;;;;;;;;;10.68;63.54;99172.47;5065190;28;20412;-77
2023/12/01 12:57:29;;;;;;;;;;;;;;;10.69;63.68;99169.63;5067797;28;19916;-78